Peotone Weather
Peotone-Weather Station Historical Data
Daily Summary for September 2, 2019 Units:  English    Metric   Both
Daily Weekly Monthly Yearly Custom
  High: Low: Average:
Temperature: 34.7 °F 25.2 °F 29.8 °F
Dew Point: 23.5 °F 18.2 °F 21.5 °F
Humidity: 78% 55.5% 71%
Wind Speed: 12mph 0mph 4mph
Wind Gust: 19.5mph - -
Wind- - SW
Pressure: 30.31 in 30.13 in -
Precipitation: 0.00 in    
Historical Graphs
 
 
Tabular Data for September 2, 2019
Time Temperature Dew Point Pressure Wind Wind Speed Wind Gust Humidity Rainfall Rate (Hourly) solar
00:04 28.8 °F 21.9 °F 30.16 in NE 0.4 mph 2.3 mph 75% 0.00 in 0 W/m2
00:09 28.7 °F 21.8 °F 30.15 in Calm   2.3 mph 75% 0.00 in 0 W/m2
00:14 28.7 °F 22.1 °F 30.15 in Calm   1.1 mph 76% 0.00 in 0 W/m2
00:19 28.7 °F 22.1 °F 30.15 in NE 0.3 mph 2.3 mph 76% 0.00 in 0 W/m2
00:24 28.7 °F 22.1 °F 30.15 in Calm   2.3 mph 75.9% 0.00 in 0 W/m2
00:29 28.8 °F 22.1 °F 30.15 in NE 0.7 mph 2.3 mph 75.7% 0.00 in 0 W/m2
00:34 28.8 °F 22.2 °F 30.16 in NE 0.1 mph 2.3 mph 76% 0.00 in 0 W/m2
00:39 28.8 °F 22.1 °F 30.16 in Calm   1.1 mph 75.8% 0.00 in 0 W/m2
00:44 28.8 °F 22.1 °F 30.16 in Calm     75.8% 0.00 in 0 W/m2
00:49 28.8 °F 22.2 °F 30.16 in NE 0.1 mph 1.1 mph 76% 0.00 in 0 W/m2
00:54 28.8 °F 22.2 °F 30.16 in NE 0.2 mph 2.3 mph 76% 0.00 in 0 W/m2
00:59 28.8 °F 22.2 °F 30.16 in Calm   2.3 mph 76% 0.00 in 0 W/m2
01:04 28.8 °F 22.2 °F 30.15 in NE 0.8 mph 2.3 mph 76% 0.00 in 0 W/m2
01:09 28.9 °F 22.3 °F 30.15 in NE 0.9 mph 3.4 mph 76% 0.00 in 0 W/m2
01:14 28.9 °F 22.3 °F 30.15 in NE 0.1 mph 3.4 mph 76% 0.00 in 0 W/m2
01:19 28.9 °F 22.3 °F 30.15 in Calm   1.1 mph 76% 0.00 in 0 W/m2
01:24 29 °F 22.4 °F 30.15 in NE 0.7 mph 2.3 mph 76% 0.00 in 0 W/m2
01:29 29 °F 22.4 °F 30.15 in NE 0.5 mph 2.3 mph 76% 0.00 in 0 W/m2
01:34 29 °F 22.4 °F 30.15 in Calm   2.3 mph 76% 0.00 in 0 W/m2
01:39 29 °F 22.4 °F 30.16 in NE 0.1 mph 1.1 mph 76% 0.00 in 0 W/m2
01:44 29 °F 22.4 °F 30.15 in NE 0.1 mph 2.3 mph 76% 0.00 in 0 W/m2
01:49 29 °F 22.4 °F 30.15 in Calm   2.3 mph 76% 0.00 in 0 W/m2
01:54 29.1 °F 22.5 °F 30.15 in Calm   1.1 mph 76% 0.00 in 0 W/m2
01:59 29.1 °F 22.5 °F 30.15 in NE 0.1 mph 1.1 mph 76% 0.00 in 0 W/m2
02:04 29.1 °F 22.5 °F 30.15 in Calm   1.1 mph 76% 0.00 in 0 W/m2
02:09 29.1 °F 22.5 °F 30.15 in NE 0.3 mph 3.4 mph 76% 0.00 in 0 W/m2
02:14 29.1 °F 22.5 °F 30.15 in Calm   3.5 mph 76% 0.00 in 0 W/m2
02:19 29.1 °F 22.5 °F 30.15 in NE 0.4 mph 2.3 mph 76% 0.00 in 0 W/m2
02:24 29.2 °F 22.6 °F 30.14 in NE 0.1 mph 2.3 mph 76% 0.00 in 0 W/m2
02:29 29.2 °F 22.6 °F 30.14 in NE 0.4 mph 2.3 mph 76% 0.00 in 0 W/m2
02:34 29.2 °F 22.6 °F 30.14 in Calm   2.3 mph 76% 0.00 in 0 W/m2
02:39 29.2 °F 22.6 °F 30.14 in Calm   1.1 mph 76% 0.00 in 0 W/m2
02:44 29.2 °F 22.6 °F 30.14 in Calm     76% 0.00 in 0 W/m2
02:49 29.2 °F 22.6 °F 30.14 in Calm     76% 0.00 in 0 W/m2
02:54 29.2 °F 22.6 °F 30.13 in Calm     76% 0.00 in 0 W/m2
02:59 29.2 °F 22.6 °F 30.13 in Calm     76% 0.00 in 0 W/m2
03:04 29.2 °F 22.6 °F 30.13 in Calm     76% 0.00 in 0 W/m2
03:09 29.3 °F 22.6 °F 30.13 in Calm     76% 0.00 in 0 W/m2
03:14 29.3 °F 22.6 °F 30.13 in NE 0.5 mph 3.4 mph 76% 0.00 in 0 W/m2
03:19 29.3 °F 22.7 °F 30.13 in NE 0.8 mph 3.4 mph 76% 0.00 in 0 W/m2
03:24 29.3 °F 22.7 °F 30.13 in NE 0.5 mph 2.3 mph 76% 0.00 in 0 W/m2
03:29 29.3 °F 22.7 °F 30.13 in NE 0.3 mph 2.3 mph 76% 0.00 in 0 W/m2
03:34 29.3 °F 22.7 °F 30.13 in NE 0.2 mph 2.3 mph 76% 0.00 in 0 W/m2
03:39 29.3 °F 22.7 °F 30.13 in Calm   2.3 mph 76% 0.00 in 0 W/m2
03:44 29.3 °F 22.7 °F 30.13 in Calm     76% 0.00 in 0 W/m2
03:49 29.3 °F 22.7 °F 30.13 in Calm     76% 0.00 in 0 W/m2
03:54 29.3 °F 22.7 °F 30.13 in Calm     76% 0.00 in 0 W/m2
03:59 29.3 °F 22.7 °F 30.13 in Calm     76% 0.00 in 0 W/m2
04:04 29.3 °F 22.7 °F 30.13 in Calm     76% 0.00 in 0 W/m2
04:09 29.3 °F 22.7 °F 30.14 in Calm     76% 0.00 in 0 W/m2
04:14 29.3 °F 22.7 °F 30.14 in Calm   1.1 mph 76% 0.00 in 0 W/m2
04:19 29.3 °F 22.7 °F 30.14 in Calm   1.1 mph 76.1% 0.00 in 0 W/m2
04:24 29.3 °F 22.7 °F 30.14 in Calm     76% 0.00 in 0 W/m2
04:29 29.3 °F 22.7 °F 30.14 in Calm     76% 0.00 in 0 W/m2
04:34 29.3 °F 22.7 °F 30.14 in NE 0.8 mph 2.3 mph 76.2% 0.00 in 0 W/m2
04:39 29.3 °F 22.9 °F 30.13 in NE 0.7 mph 2.3 mph 76.7% 0.00 in 0 W/m2
04:44 29.3 °F 23 °F 30.13 in NE 0.1 mph 2.3 mph 77% 0.00 in 0 W/m2
04:49 29.3 °F 23 °F 30.14 in NW 0.4 mph 4.6 mph 77% 0.00 in 0 W/m2
04:54 29.3 °F 23 °F 30.14 in West 2.2 mph 4.6 mph 77% 0.00 in 0 W/m2
04:59 29.4 °F 23 °F 30.15 in West 3.3 mph 4.6 mph 77% 0.00 in 0 W/m2
05:04 29.4 °F 23.1 °F 30.15 in West 4 mph 5.8 mph 77% 0.00 in 0 W/m2
05:09 29.4 °F 23.1 °F 30.15 in West 3.3 mph 6.9 mph 77% 0.00 in 0 W/m2
05:14 29.5 °F 23.2 °F 30.16 in WNW 3.1 mph 6.9 mph 77% 0.00 in 0 W/m2
05:19 29.5 °F 23.2 °F 30.16 in WNW 3 mph 5.8 mph 77% 0.00 in 0 W/m2
05:24 29.5 °F 23.2 °F 30.16 in WNW 3.5 mph 4.6 mph 77% 0.00 in 0 W/m2
05:29 29.5 °F 23.3 °F 30.16 in WNW 3 mph 4.6 mph 77.4% 0.00 in 0 W/m2
05:34 29.5 °F 23.5 °F 30.17 in WNW 3.3 mph 5.8 mph 78% 0.00 in 0 W/m2
05:39 29.4 °F 23.4 °F 30.17 in WNW 4.7 mph 9.2 mph 78% 0.00 in 0 W/m2
05:44 29.4 °F 23.4 °F 30.17 in WNW 4.5 mph 9.2 mph 78% 0.00 in 0 W/m2
05:49 29.4 °F 23.4 °F 30.17 in WNW 4.8 mph 9.2 mph 78% 0.00 in 0 W/m2
05:54 29.4 °F 23.4 °F 30.18 in WNW 4.9 mph 9.2 mph 78% 0.00 in 0 W/m2
05:59 29.4 °F 23.4 °F 30.18 in WNW 4 mph 9.2 mph 78% 0.00 in 0 W/m2
06:04 29.4 °F 23.4 °F 30.18 in WNW 4.2 mph 8.1 mph 78% 0.00 in 0 W/m2
06:09 29.4 °F 23.4 °F 30.19 in WNW 6.9 mph 10.3 mph 78% 0.00 in 0 W/m2
06:14 29.4 °F 23.4 °F 30.19 in NW 6.4 mph 10.3 mph 78% 0.00 in 0 W/m2
06:19 29.4 °F 23.4 °F 30.19 in NW 6.1 mph 11.5 mph 78% 0.00 in 0 W/m2
06:24 29.4 °F 23.4 °F 30.19 in NW 6.4 mph 11.5 mph 78% 0.00 in 0 W/m2
06:29 29.4 °F 23.4 °F 30.19 in NW 6.7 mph 10.3 mph 78% 0.00 in 0 W/m2
06:34 29.4 °F 23.4 °F 30.19 in NW 8.1 mph 13.8 mph 78% 0.00 in 0 W/m2
06:39 29.3 °F 23.3 °F 30.19 in NW 9 mph 14.9 mph 77.8% 0.00 in 0 W/m2
06:44 29.3 °F 23 °F 30.19 in NW 8.1 mph 14.9 mph 77% 0.00 in 5 W/m2
06:49 29.3 °F 23 °F 30.19 in NW 5 mph 12.6 mph 77% 0.00 in 9 W/m2
06:54 29.3 °F 23 °F 30.20 in NW 5.8 mph 9.2 mph 77% 0.00 in 9 W/m2
06:59 29.3 °F 23 °F 30.20 in NW 5.8 mph 9.2 mph 77% 0.00 in 11 W/m2
07:04 29.3 °F 23 °F 30.21 in NW 5.4 mph 9.2 mph 77% 0.00 in 11 W/m2
07:09 29.3 °F 23 °F 30.21 in WNW 4.8 mph 8.1 mph 77% 0.00 in 12 W/m2
07:14 29.3 °F 23 °F 30.22 in NW 6 mph 11.5 mph 77% 0.00 in 16 W/m2
07:19 29.3 °F 22.9 °F 30.22 in NW 7.2 mph 11.5 mph 76.7% 0.00 in 19 W/m2
07:24 29.3 °F 22.7 °F 30.22 in NW 6.6 mph 11.5 mph 76.1% 0.00 in 21 W/m2
07:29 29.2 °F 22.6 °F 30.23 in NW 8 mph 12.6 mph 76% 0.00 in 26 W/m2
07:34 29.2 °F 22.6 °F 30.23 in NW 8.5 mph 13.8 mph 76% 0.00 in 30 W/m2
07:39 29.2 °F 22.6 °F 30.23 in NW 8 mph 12.6 mph 76% 0.00 in 32 W/m2
07:44 29.2 °F 22.6 °F 30.23 in NW 7.4 mph 11.5 mph 76% 0.00 in 35 W/m2
07:49 29.3 °F 22.6 °F 30.24 in NW 7.8 mph 12.6 mph 76% 0.00 in 32 W/m2
07:54 29.3 °F 22.7 °F 30.24 in NW 6.8 mph 12.6 mph 76.1% 0.00 in 35 W/m2
07:59 29.3 °F 22.7 °F 30.24 in NW 8.6 mph 13.8 mph 76.2% 0.00 in 40 W/m2
08:04 29.3 °F 23 °F 30.24 in WNW 8.9 mph 13.8 mph 77% 0.00 in 49 W/m2
08:09 29.3 °F 22.7 °F 30.24 in WNW 8.4 mph 13.8 mph 76.2% 0.00 in 49 W/m2
08:14 29.2 °F 22.8 °F 30.25 in NW 8.2 mph 13.8 mph 76.6% 0.00 in 70 W/m2
08:19 29.3 °F 23 °F 30.25 in NW 6.2 mph 13.8 mph 77% 0.00 in 76 W/m2
08:24 29.4 °F 23 °F 30.25 in NW 7.7 mph 14.9 mph 77% 0.00 in 76 W/m2
08:29 29.4 °F 23.1 °F 30.25 in NW 9.8 mph 17.2 mph 77% 0.00 in 86 W/m2
08:34 29.4 °F 23 °F 30.24 in NW 10.2 mph 19.5 mph 76.6% 0.00 in 98 W/m2
08:39 29.4 °F 22.8 °F 30.24 in NW 12 mph 19.5 mph 76% 0.00 in 120 W/m2
08:44 29.5 °F 22.8 °F 30.24 in NW 8.3 mph 18.4 mph 75.7% 0.00 in 114 W/m2
08:49 29.6 °F 22.7 °F 30.24 in NW 10.7 mph 16.1 mph 75% 0.00 in 127 W/m2
08:54 29.8 °F 22.6 °F 30.24 in NW 10.2 mph 16.1 mph 74.3% 0.00 in 137 W/m2
08:59 30 °F 22.7 °F 30.24 in NW 8.4 mph 14.9 mph 74% 0.00 in 162 W/m2
09:04 30.1 °F 22.6 °F 30.23 in NW 9.6 mph 16.1 mph 73.3% 0.00 in 171 W/m2
09:09 30.3 °F 22.7 °F 30.23 in NW 9.7 mph 16.1 mph 73% 0.00 in 197 W/m2
09:14 30.4 °F 22.6 °F 30.24 in NW 10.6 mph 16.1 mph 72.2% 0.00 in 214 W/m2
09:19 30.6 °F 22.5 °F 30.25 in NNW 9.4 mph 16.1 mph 71.5% 0.00 in 134 W/m2
09:24 30.6 °F 22.3 °F 30.25 in NW 8.1 mph 16.1 mph 71% 0.00 in 148 W/m2
09:29 30.7 °F 22.4 °F 30.25 in NNW 9 mph 14.9 mph 71% 0.00 in 156 W/m2
09:34 30.7 °F 22.2 °F 30.25 in NNW 7.3 mph 14.9 mph 70.1% 0.00 in 148 W/m2
09:39 30.8 °F 22.2 °F 30.25 in NNW 7.5 mph 14.9 mph 70% 0.00 in 130 W/m2
09:44 30.8 °F 22.2 °F 30.25 in NNW 7.3 mph 11.5 mph 70% 0.00 in 193 W/m2
09:49 31 °F 22.4 °F 30.25 in NNW 7.4 mph 13.8 mph 70% 0.00 in 193 W/m2
09:54 31.1 °F 22.1 °F 30.25 in NNW 10.3 mph 16.1 mph 69% 0.00 in 236 W/m2
09:59 31.2 °F 22.1 °F 30.25 in NNW 8.1 mph 14.9 mph 68.6% 0.00 in 251 W/m2
10:04 31.3 °F 22 °F 30.26 in NNW 7.8 mph 13.8 mph 68% 0.00 in 243 W/m2
10:09 31.5 °F 22.2 °F 30.27 in NW 6.8 mph 13.8 mph 68% 0.00 in 216 W/m2
10:14 31.7 °F 22.1 °F 30.27 in NNW 7.8 mph 13.8 mph 67.1% 0.00 in 218 W/m2
10:19 31.8 °F 22.1 °F 30.28 in NW 8.6 mph 12.6 mph 67% 0.00 in 218 W/m2
10:24 31.8 °F 21.7 °F 30.28 in NW 8.4 mph 13.8 mph 66% 0.00 in 186 W/m2
10:29 31.8 °F 22 °F 30.27 in NW 6.7 mph 13.8 mph 66.7% 0.00 in 186 W/m2
10:34 31.8 °F 21.8 °F 30.27 in NW 7.9 mph 12.6 mph 66.3% 0.00 in 149 W/m2
10:39 31.8 °F 22.1 °F 30.27 in NW 7.1 mph 12.6 mph 67% 0.00 in 176 W/m2
10:44 31.8 °F 22 °F 30.27 in NW 7.2 mph 11.5 mph 66.6% 0.00 in 216 W/m2
10:49 31.9 °F 21.8 °F 30.27 in NW 6.6 mph 12.6 mph 66% 0.00 in 162 W/m2
10:54 31.9 °F 21.9 °F 30.27 in NNW 6 mph 12.6 mph 66% 0.00 in 199 W/m2
10:59 31.9 °F 21.8 °F 30.27 in NNW 6.3 mph 13.8 mph 65.7% 0.00 in 185 W/m2
11:04 32 °F 21.9 °F 30.27 in NW 5.9 mph 13.8 mph 65.9% 0.00 in 151 W/m2
11:09 32 °F 22 °F 30.28 in NNW 4.8 mph 10.3 mph 66% 0.00 in 149 W/m2
11:14 32 °F 22 °F 30.28 in NNW 6.6 mph 10.3 mph 66% 0.00 in 174 W/m2
11:19 32 °F 21.8 °F 30.27 in NW 5.8 mph 10.3 mph 65.7% 0.00 in 206 W/m2
11:24 32.1 °F 22.1 °F 30.27 in NNW 5.3 mph 10.3 mph 66% 0.00 in 225 W/m2
11:29 32.3 °F 22 °F 30.27 in NW 5.1 mph 10.3 mph 65.5% 0.00 in 213 W/m2
11:34 32.5 °F 22 °F 30.28 in NW 6.6 mph 9.2 mph 64.9% 0.00 in 283 W/m2
11:39 32.6 °F 21.8 °F 30.29 in NNW 5.5 mph 9.2 mph 64% 0.00 in 299 W/m2
11:44 32.7 °F 21.2 °F 30.29 in NNW 3.6 mph 9.2 mph 62.3% 0.00 in 378 W/m2
11:49 32.9 °F 21.4 °F 30.29 in NNW 4.9 mph 9.2 mph 62.2% 0.00 in 318 W/m2
11:54 33.1 °F 21.3 °F 30.29 in North 3.8 mph 8.1 mph 61.3% 0.00 in 318 W/m2
11:59 33 °F 21.1 °F 30.29 in NNW 3.8 mph 6.9 mph 61.1% 0.00 in 316 W/m2
12:04 33.3 °F 21.6 °F 30.29 in North 3.1 mph 8.1 mph 61.9% 0.00 in 388 W/m2
12:09 34 °F 22.8 °F 30.29 in NNW 5.1 mph 9.2 mph 63.1% 0.00 in 364 W/m2
12:14 34.1 °F 22.2 °F 30.30 in NNW 7.8 mph 11.5 mph 61.3% 0.00 in 308 W/m2
12:19 33.9 °F 22.1 °F 30.30 in NNW 4.6 mph 11.5 mph 61.6% 0.00 in 315 W/m2
12:24 33.9 °F 22.4 °F 30.30 in NW 7.5 mph 13.8 mph 62.3% 0.00 in 156 W/m2
12:29 33.5 °F 22.3 °F 30.30 in NW 7.7 mph 13.8 mph 63% 0.00 in 218 W/m2
12:34 33.4 °F 22.6 °F 30.30 in NW 6.8 mph 13.8 mph 64.2% 0.00 in 260 W/m2
12:39 33.8 °F 22.8 °F 30.30 in NW 7.5 mph 11.5 mph 63.7% 0.00 in 246 W/m2
12:44 33.8 °F 22.6 °F 30.30 in NW 5.9 mph 11.5 mph 63.2% 0.00 in 288 W/m2
12:49 34.3 °F 22.8 °F 30.29 in NW 8.6 mph 14.9 mph 62.4% 0.00 in 272 W/m2
12:54 34.2 °F 22.3 °F 30.29 in NNW 7.1 mph 14.9 mph 61.4% 0.00 in 257 W/m2
12:59 33.9 °F 22.1 °F 30.29 in NNW 6.1 mph 12.6 mph 61.3% 0.00 in 258 W/m2
13:04 33.9 °F 22.2 °F 30.30 in NW 6.3 mph 13.8 mph 61.8% 0.00 in 267 W/m2
13:09 33.7 °F 21.9 °F 30.30 in NNW 7.7 mph 13.8 mph 61.7% 0.00 in 223 W/m2
13:14 33.7 °F 22.5 °F 30.30 in NNW 5.6 mph 12.6 mph 63% 0.00 in 357 W/m2
13:19 34.2 °F 22 °F 30.30 in NNW 5.4 mph 13.8 mph 60.6% 0.00 in 357 W/m2
13:24 34.1 °F 21.7 °F 30.30 in NW 7.5 mph 13.8 mph 60.1% 0.00 in 214 W/m2
13:29 33.9 °F 21.7 °F 30.30 in NW 8.7 mph 11.5 mph 60.5% 0.00 in 265 W/m2
13:34 34.1 °F 22.2 °F 30.30 in NW 6.3 mph 11.5 mph 61.4% 0.00 in 311 W/m2
13:39 34.4 °F 21.8 °F 30.30 in NW 6.3 mph 9.2 mph 59.6% 0.00 in 311 W/m2
13:44 34 °F 21.3 °F 30.30 in NW 6.7 mph 12.6 mph 59.2% 0.00 in 257 W/m2
13:49 34 °F 21.9 °F 30.29 in NNW 6 mph 12.6 mph 60.6% 0.00 in 283 W/m2
13:54 34.3 °F 22.3 °F 30.29 in NW 5.6 mph 10.3 mph 60.9% 0.00 in 294 W/m2
13:59 34.3 °F 21.7 °F 30.29 in NW 4.8 mph 10.3 mph 59.7% 0.00 in 260 W/m2
14:04 34.4 °F 21.9 °F 30.29 in NNW 4.4 mph 8.1 mph 59.8% 0.00 in 232 W/m2
14:09 34.1 °F 20.9 °F 30.30 in NNW 4.5 mph 8.1 mph 57.9% 0.00 in 267 W/m2
14:14 34.2 °F 21.2 °F 30.29 in NNW 6.3 mph 10.3 mph 58.4% 0.00 in 269 W/m2
14:19 34.3 °F 21.3 °F 30.28 in North 3.1 mph 10.3 mph 58.5% 0.00 in 269 W/m2
14:24 34.1 °F 21.2 °F 30.29 in NNW 3.6 mph 8.1 mph 58.8% 0.00 in 246 W/m2
14:29 34.1 °F 21.2 °F 30.29 in NNW 4.6 mph 8.1 mph 59% 0.00 in 220 W/m2
14:34 34.3 °F 21.5 °F 30.28 in North 3.6 mph 8.1 mph 59% 0.00 in 236 W/m2
14:39 34.7 °F 21.8 °F 30.28 in North 5.2 mph 10.3 mph 58.9% 0.00 in 236 W/m2
14:44 34.3 °F 21.3 °F 30.28 in North 5.5 mph 10.3 mph 58.6% 0.00 in 220 W/m2
14:49 34.4 °F 21.4 °F 30.28 in North 4.7 mph 9.2 mph 58.5% 0.00 in 216 W/m2
14:54 34.4 °F 21.4 °F 30.28 in NNW 5.8 mph 9.2 mph 58.7% 0.00 in 213 W/m2
14:59 34.1 °F 21 °F 30.28 in NW 6.3 mph 11.5 mph 58.2% 0.00 in 216 W/m2
15:04 34.1 °F 20.9 °F 30.28 in NNW 5.3 mph 11.5 mph 57.9% 0.00 in 172 W/m2
15:09 34.4 °F 21.1 °F 30.29 in NNW 5.7 mph 10.3 mph 57.9% 0.00 in 181 W/m2
15:14 34.5 °F 20.9 °F 30.29 in North 5.9 mph 11.5 mph 57.2% 0.00 in 181 W/m2
15:19 34.3 °F 20.6 °F 30.29 in North 5 mph 11.5 mph 56.7% 0.00 in 199 W/m2
15:24 34.2 °F 20.1 °F 30.29 in North 5.5 mph 10.3 mph 56% 0.00 in 214 W/m2
15:29 34.2 °F 19.9 °F 30.29 in NNW 5.5 mph 10.3 mph 55.5% 0.00 in 209 W/m2
15:34 34.2 °F 20.9 °F 30.29 in NNE 4.1 mph 10.3 mph 58% 0.00 in 216 W/m2
15:39 33.5 °F 22.2 °F 30.29 in ENE 6.1 mph 11.5 mph 62.7% 0.00 in 237 W/m2
15:44 33.4 °F 22.4 °F 30.28 in ENE 5.2 mph 11.5 mph 63.5% 0.00 in 200 W/m2
15:49 33.6 °F 22.9 °F 30.29 in ENE 4.3 mph 10.3 mph 64.5% 0.00 in 174 W/m2
15:54 33.3 °F 22.5 °F 30.29 in NE 5.6 mph 12.6 mph 64% 0.00 in 91 W/m2
15:59 33.1 °F 22.4 °F 30.29 in ENE 4.1 mph 12.6 mph 64.3% 0.00 in 86 W/m2
16:04 32.8 °F 22.4 °F 30.29 in NE 3.9 mph 8.1 mph 65% 0.00 in 88 W/m2
16:09 32.6 °F 22.5 °F 30.29 in NE 2.7 mph 8.1 mph 66% 0.00 in 83 W/m2
16:14 32.5 °F 22.5 °F 30.29 in NE 3.4 mph 6.9 mph 66% 0.00 in 70 W/m2
16:19 32.4 °F 22.1 °F 30.29 in NE 4.2 mph 8.1 mph 65.5% 0.00 in 69 W/m2
16:24 32.2 °F 22 °F 30.29 in NE 5.1 mph 10.3 mph 65.5% 0.00 in 69 W/m2
16:29 31.9 °F 21.8 °F 30.29 in NE 5.2 mph 10.3 mph 65.8% 0.00 in 62 W/m2
16:34 31.6 °F 21.5 °F 30.29 in NE 5.1 mph 11.5 mph 65.7% 0.00 in 76 W/m2
16:39 31.3 °F 20.9 °F 30.29 in NE 5.7 mph 11.5 mph 65% 0.00 in 77 W/m2
16:44 31.1 °F 20.7 °F 30.29 in NE 5.1 mph 11.5 mph 64.9% 0.00 in 63 W/m2
16:49 30.9 °F 20.1 °F 30.29 in NE 6.1 mph 11.5 mph 64% 0.00 in 69 W/m2
16:54 30.7 °F 20.1 °F 30.29 in NE 5.5 mph 12.6 mph 64.4% 0.00 in 53 W/m2
16:59 30.5 °F 19.9 °F 30.30 in NE 4.9 mph 12.6 mph 64.3% 0.00 in 49 W/m2
17:04 30.3 °F 20 °F 30.29 in NE 6.9 mph 11.5 mph 65% 0.00 in 53 W/m2
17:09 30.1 °F 20 °F 30.29 in NE 5.3 mph 11.5 mph 65.8% 0.00 in 53 W/m2
17:14 30 °F 20.2 °F 30.29 in NE 3.3 mph 10.3 mph 66.5% 0.00 in 53 W/m2
17:19 29.8 °F 20 °F 30.29 in NE 5 mph 12.6 mph 66.4% 0.00 in 26 W/m2
17:24 29.5 °F 19.6 °F 30.30 in NE 4.9 mph 12.6 mph 66% 0.00 in 14 W/m2
17:29 29.2 °F 19.3 °F 30.30 in NE 4.1 mph 10.3 mph 66% 0.00 in 12 W/m2
17:34 29 °F 19.4 °F 30.30 in NE 3.2 mph 9.2 mph 66.9% 0.00 in 14 W/m2
17:39 28.9 °F 19.6 °F 30.30 in NE 4 mph 8.1 mph 68% 0.00 in 11 W/m2
17:44 28.7 °F 19.5 °F 30.30 in NE 4.6 mph 9.2 mph 68% 0.00 in 5 W/m2
17:49 28.6 °F 19.5 °F 30.30 in NE 4.4 mph 10.3 mph 68.5% 0.00 in 0 W/m2
17:54 28.4 °F 19.4 °F 30.30 in NE 3.5 mph 10.3 mph 68.6% 0.00 in 0 W/m2
17:59 28.3 °F 19.5 °F 30.30 in NE 4.7 mph 8.1 mph 69.1% 0.00 in 0 W/m2
18:04 28.1 °F 19.6 °F 30.30 in NE 5.2 mph 9.2 mph 70% 0.00 in 0 W/m2
18:09 28 °F 19.5 °F 30.30 in NE 4.2 mph 10.3 mph 70% 0.00 in 0 W/m2
18:14 27.9 °F 19.4 °F 30.30 in NNE 2.5 mph 10.3 mph 70% 0.00 in 0 W/m2
18:19 27.8 °F 19.4 °F 30.30 in NNE 1.5 mph 5.8 mph 70.5% 0.00 in 0 W/m2
18:24 27.6 °F 19.5 °F 30.30 in NE 2 mph 5.8 mph 71% 0.00 in 0 W/m2
18:29 27.5 °F 19.3 °F 30.30 in NE 2.2 mph 5.8 mph 71% 0.00 in 0 W/m2
18:34 27.4 °F 19.2 °F 30.30 in NNE 3.4 mph 5.8 mph 71% 0.00 in 0 W/m2
18:39 27.2 °F 19.1 °F 30.30 in NE 1.5 mph 5.8 mph 71% 0.00 in 0 W/m2
18:44 27.1 °F 19 °F 30.30 in NE 1.1 mph 4.6 mph 71% 0.00 in 0 W/m2
18:49 27 °F 18.9 °F 30.30 in NE 1.9 mph 4.6 mph 71% 0.00 in 0 W/m2
18:54 26.9 °F 18.8 °F 30.30 in NE 2.2 mph 4.6 mph 71% 0.00 in 0 W/m2
18:59 26.7 °F 18.8 °F 30.30 in NE 1.9 mph 5.8 mph 71.6% 0.00 in 0 W/m2
19:04 26.6 °F 18.8 °F 30.30 in NE 0.6 mph 5.8 mph 72% 0.00 in 0 W/m2
19:09 26.5 °F 18.7 °F 30.30 in NE 0.9 mph 3.4 mph 72% 0.00 in 0 W/m2
19:14 26.4 °F 18.6 °F 30.30 in NE 1.7 mph 4.6 mph 72% 0.00 in 0 W/m2
19:19 26.2 °F 18.5 °F 30.30 in NE 2.6 mph 4.6 mph 72% 0.00 in 0 W/m2
19:24 26.1 °F 18.6 °F 30.30 in NE 1.9 mph 4.6 mph 73% 0.00 in 0 W/m2
19:29 26 °F 18.5 °F 30.31 in NE 1.8 mph 4.6 mph 73% 0.00 in 0 W/m2
19:34 25.9 °F 18.5 °F 30.31 in NE 0.9 mph 4.6 mph 73% 0.00 in 0 W/m2
19:39 25.8 °F 18.4 °F 30.30 in NE 0.5 mph 4.6 mph 73% 0.00 in 0 W/m2
19:44 25.7 °F 18.3 °F 30.30 in NE 0.9 mph 3.4 mph 73.1% 0.00 in 0 W/m2
19:49 25.6 °F 18.5 °F 30.30 in NE 1.5 mph 3.4 mph 74% 0.00 in 0 W/m2
19:54 25.5 °F 18.4 °F 30.30 in NE 0.7 mph 3.4 mph 74% 0.00 in 0 W/m2
19:59 25.3 °F 18.2 °F 30.29 in NE 1.8 mph 3.4 mph 74% 0.00 in 0 W/m2
20:04 25.2 °F 18.3 °F 30.30 in NE 2.3 mph 4.6 mph 74.5% 0.00 in 0 W/m2
20:09 25.2 °F 18.4 °F 30.30 in NE 1.1 mph 4.6 mph 75% 0.00 in 0 W/m2
20:14 25.2 °F 18.4 °F 30.29 in NE 1.2 mph 3.4 mph 75% 0.00 in 0 W/m2
20:19 25.3 °F 18.5 °F 30.29 in NNE 0.8 mph 3.4 mph 75% 0.00 in 0 W/m2
20:24 25.3 °F 18.5 °F 30.29 in NNE 1 mph 3.4 mph 75% 0.00 in 0 W/m2
20:29 25.4 °F 18.6 °F 30.30 in NNE 0.8 mph 3.4 mph 75% 0.00 in 0 W/m2
20:34 25.5 °F 18.7 °F 30.30 in NNE 2.1 mph 4.6 mph 75% 0.00 in 0 W/m2
20:39 25.6 °F 18.8 °F 30.30 in NNE 1.8 mph 4.6 mph 75% 0.00 in 0 W/m2
20:44 25.7 °F 18.9 °F 30.30 in NNE 1 mph 4.6 mph 75% 0.00 in 0 W/m2
20:49 25.9 °F 19.2 °F 30.30 in NNE 2.9 mph 5.8 mph 75.4% 0.00 in 0 W/m2
20:54 26 °F 19.5 °F 30.30 in North 3.8 mph 5.8 mph 75.8% 0.00 in 0 W/m2
20:59 26.2 °F 19.5 °F 30.30 in NNW 3.9 mph 5.8 mph 75.4% 0.00 in 0 W/m2
21:04 26.5 °F 19.9 °F 30.30 in NNW 3.8 mph 5.8 mph 75.8% 0.00 in 0 W/m2
21:09 26.6 °F 19.8 °F 30.30 in NW 4 mph 6.9 mph 75.2% 0.00 in 0 W/m2
21:14 26.8 °F 20 °F 30.30 in NW 4 mph 8.1 mph 75% 0.00 in 0 W/m2
21:19 26.9 °F 20.1 °F 30.30 in NW 2.3 mph 8.1 mph 75% 0.00 in 0 W/m2
21:24 27 °F 20.2 °F 30.30 in NW 2.8 mph 5.8 mph 75% 0.00 in 0 W/m2
21:29 27.1 °F 20.3 °F 30.31 in NW 3.7 mph 5.8 mph 75% 0.00 in 0 W/m2
21:34 27.3 °F 20.4 °F 30.31 in NNW 3 mph 8.1 mph 75% 0.00 in 0 W/m2
21:39 27.4 °F 20.5 °F 30.31 in NNW 4.7 mph 8.1 mph 75% 0.00 in 0 W/m2
21:44 27.5 °F 20.6 °F 30.31 in NNW 4 mph 8.1 mph 75% 0.00 in 0 W/m2
21:49 27.5 °F 20.6 °F 30.31 in NNW 4.4 mph 6.9 mph 75% 0.00 in 0 W/m2
21:54 27.6 °F 20.7 °F 30.31 in NW 4.5 mph 6.9 mph 75% 0.00 in 0 W/m2
21:59 27.6 °F 20.5 °F 30.31 in NW 3.4 mph 6.9 mph 74.1% 0.00 in 0 W/m2
22:04 27.7 °F 20.5 °F 30.31 in NNW 5.2 mph 8.1 mph 74% 0.00 in 0 W/m2
22:09 27.7 °F 20.5 °F 30.31 in NNW 4.1 mph 8.1 mph 74% 0.00 in 0 W/m2
22:14 27.7 °F 20.5 °F 30.31 in NNW 4.1 mph 8.1 mph 74% 0.00 in 0 W/m2
22:19 27.7 °F 20.5 °F 30.31 in NNW 4.8 mph 9.2 mph 74% 0.00 in 0 W/m2
22:24 27.7 °F 20.5 °F 30.31 in NNW 2.7 mph 9.2 mph 74% 0.00 in 0 W/m2
22:29 27.7 °F 20.3 °F 30.30 in NNW 3.1 mph 5.8 mph 73.2% 0.00 in 0 W/m2
22:34 27.7 °F 20.2 °F 30.31 in NNW 4.6 mph 8.1 mph 73% 0.00 in 0 W/m2
22:39 27.8 °F 20.3 °F 30.31 in NNW 2.9 mph 8.1 mph 73% 0.00 in 0 W/m2
22:44 27.8 °F 20.3 °F 30.30 in NW 4.3 mph 5.8 mph 73% 0.00 in 0 W/m2
22:49 27.7 °F 20.2 °F 30.30 in NNW 4.7 mph 8.1 mph 73% 0.00 in 0 W/m2
22:54 27.7 °F 20.2 °F 30.31 in NNW 4.2 mph 8.1 mph 73% 0.00 in 0 W/m2
22:59 27.7 °F 20.2 °F 30.31 in NNW 3.3 mph 6.9 mph 73% 0.00 in 0 W/m2
23:04 27.6 °F 20.1 °F 30.30 in NNW 4.6 mph 6.9 mph 73% 0.00 in 0 W/m2
23:09 27.6 °F 20.1 °F 30.30 in NW 3.9 mph 8.1 mph 73% 0.00 in 0 W/m2
23:14 27.6 °F 20.1 °F 30.30 in NW 2.9 mph 8.1 mph 73% 0.00 in 0 W/m2
23:19 27.5 °F 20 °F 30.30 in NNW 3.4 mph 8.1 mph 73% 0.00 in 0 W/m2
23:24 27.5 °F 20 °F 30.30 in NNW 2.5 mph 8.1 mph 73% 0.00 in 0 W/m2
23:29 27.4 °F 19.9 °F 30.30 in NNW 1.6 mph 5.8 mph 73% 0.00 in 0 W/m2
23:34 27.3 °F 19.8 °F 30.30 in NNW 3.5 mph 5.8 mph 73% 0.00 in 0 W/m2
23:39 27.3 °F 19.8 °F 30.29 in NNW 1.2 mph 5.8 mph 73% 0.00 in 0 W/m2
23:44 27.3 °F 19.8 °F 30.30 in NNW 2.7 mph 6.9 mph 73% 0.00 in 0 W/m2
23:49 27.3 °F 19.8 °F 30.30 in NNW 0.8 mph 6.9 mph 73% 0.00 in 0 W/m2
23:54 27.2 °F 19.7 °F 30.30 in North 1 mph 4.6 mph 73% 0.00 in 0 W/m2
23:59 27.2 °F 19.7 °F 30.29 in North 1.6 mph 4.6 mph 73% 0.00 in 0 W/m2
Peotne Weather
Compliments of Weather Underground - 4 mb